Time;durP1;ratioP1;P1;durP2;ratioP2;P2;SDS_P1;SDS_P2;PMS_P1;PMS_P2;Temp;Humidity;BMP_temperature;BMP_pressure;BME280_temperature;BME280_humidity;BME280_pressure;Samples;Min_cycle;Max_cycle;Signal;HPM_P1;HPM_P2
2022/12/12 00:00:14;;;;;;;46.93;21.43;;;2.00;99.90;;;;;;5082954;28;20292;-69
2022/12/12 00:02:41;;;;;;;41.30;20.47;;;2.00;99.90;;;;;;5088194;28;20276;-68
2022/12/12 00:05:12;;;;;;;41.87;20.47;;;2.00;99.90;;;;;;5079704;28;20218;-68
2022/12/12 00:07:40;;;;;;;40.30;20.73;;;2.00;99.90;;;;;;5087660;28;20904;-68
2022/12/12 00:10:07;;;;;;;43.83;22.23;;;2.00;99.90;;;;;;5087631;28;20222;-69
2022/12/12 00:12:37;;;;;;;40.43;19.63;;;2.00;99.90;;;;;;5067303;28;20288;-69
2022/12/12 00:15:05;;;;;;;47.57;21.27;;;2.00;99.90;;;;;;5090622;28;20605;-68
2022/12/12 00:17:32;;;;;;;43.43;20.50;;;2.00;99.90;;;;;;5089336;28;20317;-69
2022/12/12 00:19:58;;;;;;;45.60;20.67;;;2.00;99.90;;;;;;5083191;28;20289;-68
2022/12/12 00:22:25;;;;;;;43.13;20.23;;;2.00;99.90;;;;;;5068701;28;20274;-68
2022/12/12 00:24:52;;;;;;;47.87;20.90;;;2.00;99.90;;;;;;5087504;28;20297;-68
2022/12/12 00:27:19;;;;;;;46.23;21.30;;;2.00;99.90;;;;;;5081755;28;20301;-68
2022/12/12 00:29:51;;;;;;;44.00;21.07;;;2.00;99.90;;;;;;5081930;28;20232;-67
2022/12/12 00:32:18;;;;;;;44.50;20.13;;;2.00;99.90;;;;;;5083480;28;20804;-67
2022/12/12 00:34:45;;;;;;;42.80;19.93;;;2.00;99.90;;;;;;5081656;28;20260;-68
2022/12/12 00:37:12;;;;;;;40.40;19.80;;;2.00;99.90;;;;;;5086589;28;20197;-67
2022/12/12 00:39:39;;;;;;;44.67;20.33;;;2.00;99.90;;;;;;5088435;28;20283;-67
2022/12/12 00:42:06;;;;;;;42.47;20.93;;;2.00;99.90;;;;;;5084570;28;20623;-68
2022/12/12 00:44:33;;;;;;;47.23;20.77;;;2.00;99.90;;;;;;5079305;28;20215;-68
2022/12/12 00:46:59;;;;;;;42.00;20.53;;;2.00;99.90;;;;;;5083037;28;20293;-68
2022/12/12 00:49:26;;;;;;;43.53;20.63;;;2.00;99.90;;;;;;5071879;28;20273;-68
2022/12/12 00:51:53;;;;;;;44.83;21.20;;;2.00;99.90;;;;;;5086494;28;20576;-68
2022/12/12 00:54:22;;;;;;;42.37;20.03;;;2.00;99.90;;;;;;5088885;28;20636;-68
2022/12/12 00:56:49;;;;;;;44.10;21.17;;;2.00;99.90;;;;;;5064957;28;20299;-69
2022/12/12 00:59:15;;;;;;;48.63;20.40;;;2.00;99.90;;;;;;5086857;28;20219;-68
2022/12/12 01:01:44;;;;;;;41.60;19.83;;;2.00;99.90;;;;;;5070645;28;20677;-68
2022/12/12 01:04:10;;;;;;;43.47;20.23;;;2.00;99.90;;;;;;5079416;28;20206;-68
2022/12/12 01:06:37;;;;;;;38.97;18.80;;;2.00;99.90;;;;;;5089080;28;20225;-66
2022/12/12 01:09:04;;;;;;;41.60;19.27;;;2.00;99.90;;;;;;5085788;28;20297;-68
2022/12/12 01:11:31;;;;;;;42.37;20.07;;;2.00;99.90;;;;;;5083562;28;20237;-69
2022/12/12 01:13:58;;;;;;;40.20;19.57;;;2.00;99.90;;;;;;5085771;28;20649;-68
2022/12/12 01:16:28;;;;;;;41.97;20.77;;;2.00;99.90;;;;;;5086939;28;20660;-68
2022/12/12 01:18:56;;;;;;;42.17;20.10;;;2.00;99.90;;;;;;5080553;28;20207;-68
2022/12/12 01:21:23;;;;;;;47.27;21.47;;;2.00;99.90;;;;;;5086880;28;20220;-68
2022/12/12 01:23:52;;;;;;;39.33;18.90;;;2.00;99.90;;;;;;5079428;28;20213;-68
2022/12/12 01:26:22;;;;;;;41.40;19.83;;;2.00;99.90;;;;;;5081681;28;20223;-68
2022/12/12 01:28:50;;;;;;;39.83;19.27;;;2.00;99.90;;;;;;5070579;28;20251;-69
2022/12/12 01:31:17;;;;;;;40.67;19.77;;;2.00;99.90;;;;;;5086101;28;20232;-67
2022/12/12 01:33:44;;;;;;;42.40;18.60;;;2.00;99.90;;;;;;5086045;28;20232;-68
2022/12/12 01:36:17;;;;;;;40.03;19.77;;;2.00;99.90;;;;;;5087070;28;20301;-68
2022/12/12 01:38:45;;;;;;;40.67;20.70;;;2.00;99.90;;;;;;5085561;28;20682;-69
2022/12/12 01:41:12;;;;;;;37.67;18.57;;;2.00;99.90;;;;;;5086401;28;20761;-68
2022/12/12 01:43:39;;;;;;;42.20;20.53;;;2.00;99.90;;;;;;5085560;28;20329;-67
2022/12/12 01:46:29;;;;;;;38.33;18.50;;;2.00;99.90;;;;;;5085866;28;20235;-67
2022/12/12 01:49:02;;;;;;;40.00;20.30;;;2.00;99.90;;;;;;5086049;28;20234;-69
2022/12/12 01:51:30;;;;;;;39.27;20.37;;;2.00;99.90;;;;;;5087143;28;20597;-69
2022/12/12 01:54:03;;;;;;;41.60;18.80;;;2.00;99.90;;;;;;5085061;28;20293;-67
2022/12/12 01:56:31;;;;;;;38.07;19.27;;;2.00;99.90;;;;;;5070211;28;20307;-68
2022/12/12 01:58:59;;;;;;;37.83;19.27;;;2.00;99.90;;;;;;5089181;28;20204;-67
2022/12/12 02:01:26;;;;;;;39.83;19.00;;;2.00;99.90;;;;;;5090185;28;20205;-68
2022/12/12 02:03:53;;;;;;;40.57;19.47;;;2.00;99.90;;;;;;5089164;28;20209;-68
2022/12/12 02:06:25;;;;;;;43.47;20.07;;;2.00;99.90;;;;;;5091278;28;20210;-68
2022/12/12 02:08:54;;;;;;;41.77;19.27;;;2.00;99.90;;;;;;5089765;28;20711;-68
2022/12/12 02:11:21;;;;;;;40.17;18.90;;;1.90;99.90;;;;;;5089474;28;20263;-69
2022/12/12 02:13:49;;;;;;;42.67;19.60;;;2.00;99.90;;;;;;5073761;28;20199;-68
2022/12/12 02:16:50;;;;;;;41.60;19.83;;;2.00;99.90;;;;;;5072619;28;20339;-67
2022/12/12 02:19:45;;;;;;;38.23;18.30;;;1.90;99.90;;;;;;5064713;28;20652;-68
2022/12/12 02:22:21;;;;;;;42.07;19.63;;;1.90;99.90;;;;;;5084325;28;20206;-68
2022/12/12 02:24:54;;;;;;;41.13;19.53;;;1.90;99.90;;;;;;5089650;28;20302;-68
2022/12/12 02:27:33;;;;;;;43.10;18.93;;;1.90;99.90;;;;;;5086339;28;20300;-68
2022/12/12 02:30:23;;;;;;;44.27;19.60;;;1.90;99.90;;;;;;5091016;28;20201;-68
2022/12/12 02:33:20;;;;;;;41.23;19.73;;;1.90;99.90;;;;;;5088621;28;20292;-67
2022/12/12 02:36:05;;;;;;;40.63;19.43;;;1.90;99.90;;;;;;5076326;28;20732;-69
2022/12/12 02:38:57;;;;;;;39.70;19.77;;;1.90;99.90;;;;;;5088115;28;20576;-68
2022/12/12 02:41:31;;;;;;;41.80;19.93;;;1.90;99.90;;;;;;5087397;28;20567;-68
2022/12/12 02:44:33;;;;;;;39.83;19.43;;;1.90;99.90;;;;;;5068182;28;20209;-69
2022/12/12 02:47:11;;;;;;;42.67;19.27;;;1.90;99.90;;;;;;5085713;28;20556;-69
2022/12/12 02:49:44;;;;;;;40.30;20.10;;;1.90;99.90;;;;;;5090198;28;20292;-68
2022/12/12 02:52:11;;;;;;;41.03;20.03;;;1.90;99.90;;;;;;5090385;28;20223;-68
2022/12/12 02:54:41;;;;;;;43.63;20.13;;;1.90;99.90;;;;;;5073815;28;20236;-68
2022/12/12 02:57:19;;;;;;;35.10;18.47;;;1.90;99.90;;;;;;5082524;28;20231;-68
2022/12/12 03:00:00;;;;;;;37.43;19.17;;;1.90;99.90;;;;;;5087338;28;20308;-69
2022/12/12 03:09:38;;;;;;;37.77;19.23;;;1.90;99.90;;;;;;5083867;28;20659;-68
2022/12/12 03:13:02;;;;;;;38.53;19.47;;;1.80;99.90;;;;;;5081859;28;20319;-68
2022/12/12 03:15:43;;;;;;;36.43;18.47;;;1.90;99.90;;;;;;5009072;28;20243;-68
2022/12/12 03:18:38;;;;;;;39.07;18.60;;;1.90;99.90;;;;;;5007679;28;20289;-68
2022/12/12 03:21:13;;;;;;;41.53;19.33;;;1.90;99.90;;;;;;5075786;28;20241;-66
2022/12/12 03:23:48;;;;;;;42.40;20.90;;;1.90;99.90;;;;;;5089052;28;20687;-67
2022/12/12 03:26:29;;;;;;;39.93;20.50;;;1.90;99.90;;;;;;5081113;28;20294;-69
2022/12/12 03:29:05;;;;;;;40.80;21.87;;;1.90;99.90;;;;;;5087656;28;20232;-68
2022/12/12 03:31:36;;;;;;;42.03;19.07;;;1.90;99.90;;;;;;5086381;28;20224;-68
2022/12/12 03:34:17;;;;;;;42.87;20.47;;;1.90;99.90;;;;;;5087398;28;20206;-68
2022/12/12 03:36:59;;;;;;;37.37;19.00;;;1.90;99.90;;;;;;5079825;28;20208;-68
2022/12/12 03:39:41;;;;;;;35.40;18.33;;;1.90;99.90;;;;;;5085032;28;20292;-68
2022/12/12 03:42:15;;;;;;;38.23;18.60;;;1.90;99.90;;;;;;5085604;28;20254;-68
2022/12/12 03:44:55;;;;;;;41.63;19.63;;;1.90;99.90;;;;;;5084601;28;20223;-68
2022/12/12 03:47:37;;;;;;;40.43;19.63;;;1.90;99.90;;;;;;5086717;28;20586;-68
2022/12/12 03:50:28;;;;;;;39.10;20.30;;;1.90;99.90;;;;;;5088579;28;20296;-68
2022/12/12 03:53:09;;;;;;;36.43;18.57;;;1.90;99.90;;;;;;5086019;28;20273;-69
2022/12/12 03:56:06;;;;;;;45.57;19.43;;;1.90;99.90;;;;;;5087614;28;20208;-69
2022/12/12 03:58:41;;;;;;;41.27;20.17;;;1.90;99.90;;;;;;5087525;28;20221;-67
2022/12/12 04:01:11;;;;;;;42.03;20.60;;;1.90;99.90;;;;;;5079011;28;20652;-68
2022/12/12 04:03:55;;;;;;;43.87;19.57;;;1.90;99.90;;;;;;5087790;28;20204;-69
2022/12/12 04:06:44;;;;;;;35.23;18.80;;;1.90;99.90;;;;;;5081973;28;20382;-68
2022/12/12 04:15:48;;;;;;;32.50;18.00;;;1.90;99.90;;;;;;5087377;28;20330;-68
2022/12/12 04:18:42;;;;;;;35.33;17.63;;;1.90;99.90;;;;;;5088140;28;20284;-68
2022/12/12 04:24:33;;;;;;;36.00;18.77;;;1.90;99.90;;;;;;5086363;28;20282;-68
2022/12/12 04:27:23;;;;;;;43.63;20.17;;;1.90;99.90;;;;;;5079856;28;20571;-69
2022/12/12 04:30:02;;;;;;;35.23;18.20;;;1.80;99.90;;;;;;5087585;28;20287;-69
2022/12/12 04:32:41;;;;;;;37.20;18.23;;;1.80;99.90;;;;;;5087071;28;20223;-69
2022/12/12 04:35:19;;;;;;;39.90;19.70;;;1.80;99.90;;;;;;5084471;28;20307;-68
2022/12/12 04:37:56;;;;;;;34.73;18.73;;;1.80;99.90;;;;;;5083824;28;20287;-68
2022/12/12 04:40:33;;;;;;;44.07;20.40;;;1.90;99.90;;;;;;5080672;28;20795;-69
2022/12/12 04:43:05;;;;;;;41.43;19.73;;;1.80;99.90;;;;;;5085333;28;20633;-69
2022/12/12 04:45:39;;;;;;;37.13;19.50;;;1.90;99.90;;;;;;5072049;28;20291;-69
2022/12/12 04:48:11;;;;;;;35.63;18.83;;;1.90;99.90;;;;;;5089647;28;20230;-68
2022/12/12 04:50:38;;;;;;;40.87;20.47;;;1.80;99.90;;;;;;5081014;28;20657;-69
2022/12/12 04:53:13;;;;;;;43.70;19.60;;;1.80;99.90;;;;;;5087519;28;20207;-68
2022/12/12 04:55:54;;;;;;;39.30;18.77;;;1.80;99.90;;;;;;5079155;28;20295;-68
2022/12/12 04:58:20;;;;;;;37.20;18.37;;;1.80;99.90;;;;;;5085571;28;20230;-69
2022/12/12 05:01:08;;;;;;;35.93;18.57;;;1.80;99.90;;;;;;5086489;28;20230;-69
2022/12/12 05:03:47;;;;;;;36.73;18.47;;;1.80;99.90;;;;;;5087757;28;20231;-68
2022/12/12 05:06:29;;;;;;;34.63;18.77;;;1.80;99.90;;;;;;5086774;28;20215;-68
2022/12/12 05:08:57;;;;;;;41.00;18.47;;;1.80;99.90;;;;;;5087412;28;20238;-69
2022/12/12 05:11:24;;;;;;;33.23;18.23;;;1.80;99.90;;;;;;5085151;28;20316;-69
2022/12/12 05:13:50;;;;;;;34.83;18.23;;;1.80;99.90;;;;;;5085957;28;20289;-69
2022/12/12 05:16:28;;;;;;;36.67;18.17;;;1.90;99.90;;;;;;5082183;28;20307;-69
2022/12/12 05:18:55;;;;;;;37.40;19.17;;;1.80;99.90;;;;;;5085492;28;20212;-69
2022/12/12 05:21:21;;;;;;;42.57;19.10;;;1.90;99.90;;;;;;5071730;28;20291;-69
2022/12/12 05:23:48;;;;;;;36.40;18.43;;;1.90;99.90;;;;;;5085465;28;20233;-69
2022/12/12 05:26:18;;;;;;;37.07;17.97;;;1.90;99.90;;;;;;5081177;28;20712;-69
2022/12/12 05:28:45;;;;;;;37.87;18.77;;;1.90;99.90;;;;;;5079568;28;20300;-68
2022/12/12 05:31:12;;;;;;;41.20;19.27;;;1.90;99.90;;;;;;5067737;28;20719;-68
2022/12/12 05:33:39;;;;;;;40.00;17.93;;;1.90;99.90;;;;;;5087672;28;20207;-68
2022/12/12 05:36:06;;;;;;;37.30;18.10;;;1.90;99.90;;;;;;5090551;28;20204;-69
2022/12/12 05:38:33;;;;;;;36.90;18.87;;;1.90;99.90;;;;;;5092330;28;20313;-69
2022/12/12 05:41:00;;;;;;;37.67;17.93;;;1.90;99.90;;;;;;5091682;28;20513;-69
2022/12/12 05:43:27;;;;;;;38.33;18.37;;;1.80;99.90;;;;;;5086866;28;20216;-69
2022/12/12 05:45:53;;;;;;;38.40;19.07;;;1.80;99.90;;;;;;5088726;28;20207;-69
2022/12/12 05:48:20;;;;;;;41.57;19.40;;;1.80;99.90;;;;;;5090857;28;20221;-69
2022/12/12 05:50:50;;;;;;;40.40;19.33;;;1.90;99.90;;;;;;5085887;28;20208;-68
2022/12/12 05:53:17;;;;;;;38.67;20.37;;;1.80;99.90;;;;;;5073815;28;20209;-68
2022/12/12 05:55:44;;;;;;;39.17;18.47;;;1.80;99.90;;;;;;5087361;28;20693;-69
2022/12/12 05:58:11;;;;;;;38.57;19.77;;;1.80;99.90;;;;;;5090262;28;20221;-68
2022/12/12 06:00:38;;;;;;;41.87;18.67;;;1.80;99.90;;;;;;5088266;28;20202;-68
2022/12/12 06:03:04;;;;;;;37.93;19.30;;;1.80;99.90;;;;;;5086043;28;20600;-68
2022/12/12 06:05:32;;;;;;;41.47;20.17;;;1.80;99.90;;;;;;5084988;28;20272;-69
2022/12/12 06:07:59;;;;;;;37.83;19.97;;;1.80;99.90;;;;;;5089598;28;20238;-69
2022/12/12 06:10:26;;;;;;;39.00;18.00;;;1.80;99.90;;;;;;5090919;28;20208;-69
2022/12/12 06:12:53;;;;;;;40.03;19.70;;;1.80;99.90;;;;;;5069593;28;20276;-67
2022/12/12 06:15:20;;;;;;;43.03;19.50;;;1.80;99.90;;;;;;5082242;28;20208;-69
2022/12/12 06:17:46;;;;;;;39.10;19.83;;;1.80;99.90;;;;;;5087717;28;20206;-69
2022/12/12 06:20:13;;;;;;;39.77;19.93;;;1.80;99.90;;;;;;5087579;28;20194;-70
2022/12/12 06:22:41;;;;;;;39.90;20.10;;;1.80;99.90;;;;;;5085169;28;20740;-67
2022/12/12 06:25:09;;;;;;;37.20;18.90;;;1.80;99.90;;;;;;5081930;28;20243;-68
2022/12/12 06:27:37;;;;;;;40.20;19.90;;;1.80;99.90;;;;;;5091058;28;20216;-70
2022/12/12 06:30:05;;;;;;;37.20;18.63;;;1.80;99.90;;;;;;5081345;28;20213;-68
2022/12/12 06:32:32;;;;;;;40.57;19.80;;;1.80;99.90;;;;;;5071983;28;20224;-68
2022/12/12 06:34:59;;;;;;;39.80;20.43;;;1.80;99.90;;;;;;5084350;28;20208;-68
2022/12/12 06:37:26;;;;;;;41.13;19.43;;;1.80;99.90;;;;;;5087848;28;20221;-68
2022/12/12 06:39:52;;;;;;;39.13;19.47;;;1.80;99.90;;;;;;5085222;28;20293;-69
2022/12/12 06:42:19;;;;;;;41.10;20.83;;;1.80;99.90;;;;;;5088966;28;20233;-69
2022/12/12 06:44:46;;;;;;;40.67;19.37;;;1.70;99.90;;;;;;5050605;28;20214;-69
2022/12/12 06:47:16;;;;;;;38.07;20.03;;;1.80;99.90;;;;;;5089806;28;20225;-69
2022/12/12 06:49:42;;;;;;;36.87;19.40;;;1.80;99.90;;;;;;5091920;28;20211;-68
2022/12/12 06:52:09;;;;;;;45.80;20.87;;;1.80;99.90;;;;;;5072942;28;20598;-68
2022/12/12 06:54:36;;;;;;;43.47;20.43;;;1.80;99.90;;;;;;5089870;28;20205;-68
2022/12/12 06:57:03;;;;;;;40.37;19.93;;;1.80;99.90;;;;;;5090631;28;20328;-69
2022/12/12 06:59:29;;;;;;;40.97;19.67;;;1.80;99.90;;;;;;5091626;28;20229;-67
2022/12/12 07:01:56;;;;;;;42.43;20.67;;;1.80;99.90;;;;;;5083438;28;20203;-70
2022/12/12 07:04:24;;;;;;;39.93;20.60;;;1.80;99.90;;;;;;5085266;28;20599;-71
2022/12/12 07:06:51;;;;;;;41.23;20.73;;;1.70;99.90;;;;;;5080852;28;20241;-70
2022/12/12 07:09:19;;;;;;;42.17;19.97;;;1.80;99.90;;;;;;5091148;28;20240;-70
2022/12/12 07:11:46;;;;;;;36.93;19.17;;;1.80;99.90;;;;;;5088825;28;20325;-69
2022/12/12 07:14:12;;;;;;;42.60;20.93;;;1.80;99.90;;;;;;5080281;28;20241;-69
2022/12/12 07:16:39;;;;;;;43.63;21.53;;;1.80;99.90;;;;;;5085105;28;20205;-70
2022/12/12 07:19:06;;;;;;;40.60;20.33;;;1.80;99.90;;;;;;5066777;28;20310;-70
2022/12/12 07:21:33;;;;;;;42.57;20.50;;;1.80;99.90;;;;;;5089637;28;20577;-71
2022/12/12 07:24:00;;;;;;;42.83;21.40;;;1.80;99.90;;;;;;5089758;28;20211;-70
2022/12/12 07:26:26;;;;;;;42.17;20.77;;;1.80;99.90;;;;;;5090688;28;20212;-71
2022/12/12 07:28:53;;;;;;;41.27;20.93;;;1.80;99.90;;;;;;5066587;28;20295;-71
2022/12/12 07:31:24;;;;;;;41.37;21.77;;;1.80;99.90;;;;;;5068270;28;20227;-70
2022/12/12 07:33:53;;;;;;;45.37;21.03;;;1.70;99.90;;;;;;5089022;28;20732;-69
2022/12/12 07:36:20;;;;;;;43.93;21.83;;;1.70;99.90;;;;;;5085058;28;20291;-70
2022/12/12 07:38:47;;;;;;;42.17;21.50;;;1.70;99.90;;;;;;5068886;28;20204;-70
2022/12/12 07:41:16;;;;;;;45.00;21.17;;;1.70;99.90;;;;;;5087255;28;20630;-68
2022/12/12 07:43:44;;;;;;;39.90;20.07;;;1.70;99.90;;;;;;5086011;28;20665;-69
2022/12/12 07:46:15;;;;;;;45.87;22.63;;;1.70;99.90;;;;;;5088763;28;20623;-70
2022/12/12 07:48:42;;;;;;;43.80;21.07;;;1.70;99.90;;;;;;5086032;28;20240;-69
2022/12/12 07:51:09;;;;;;;44.23;22.47;;;1.80;99.90;;;;;;5089801;28;20205;-70
2022/12/12 07:53:36;;;;;;;45.03;20.80;;;1.80;99.90;;;;;;5082306;28;20726;-69
2022/12/12 07:56:07;;;;;;;45.57;21.10;;;1.80;99.90;;;;;;5088705;28;20213;-69
2022/12/12 07:58:34;;;;;;;47.53;22.60;;;1.70;99.90;;;;;;5079233;28;20302;-71
2022/12/12 08:01:12;;;;;;;43.93;21.13;;;1.80;99.90;;;;;;5071023;28;20205;-71
2022/12/12 08:03:42;;;;;;;49.73;21.53;;;1.80;99.90;;;;;;5086784;28;20213;-70
2022/12/12 08:06:09;;;;;;;44.07;21.87;;;1.70;99.90;;;;;;5089454;28;20197;-71
2022/12/12 08:08:36;;;;;;;46.53;22.37;;;1.70;99.90;;;;;;5088678;28;20344;-71
2022/12/12 08:11:09;;;;;;;46.10;21.53;;;1.70;99.90;;;;;;5088992;28;20219;-70
2022/12/12 08:13:37;;;;;;;43.87;22.10;;;1.70;99.90;;;;;;5087576;28;20311;-69
2022/12/12 08:16:06;;;;;;;47.60;22.23;;;1.60;99.90;;;;;;5086608;28;20238;-70
2022/12/12 08:18:32;;;;;;;43.17;21.47;;;1.60;99.90;;;;;;5088801;28;20849;-69
2022/12/12 08:20:59;;;;;;;47.93;23.23;;;1.60;99.90;;;;;;5089295;28;20192;-70
2022/12/12 08:23:26;;;;;;;50.93;23.23;;;1.50;99.90;;;;;;5085060;28;20650;-69
2022/12/12 08:25:53;;;;;;;43.97;22.10;;;1.50;99.90;;;;;;5083133;28;20203;-70
2022/12/12 08:28:19;;;;;;;46.20;22.23;;;1.50;99.90;;;;;;5089765;28;20295;-69
2022/12/12 08:30:49;;;;;;;42.07;22.30;;;1.40;99.90;;;;;;5084454;28;20283;-69
2022/12/12 08:33:16;;;;;;;46.97;22.33;;;1.40;99.90;;;;;;5089555;28;20314;-70
2022/12/12 08:35:43;;;;;;;48.57;23.70;;;1.30;99.90;;;;;;5067339;28;20828;-70
2022/12/12 08:38:10;;;;;;;46.10;22.73;;;1.30;99.90;;;;;;5085388;28;20235;-70
2022/12/12 08:40:36;;;;;;;47.90;23.37;;;1.20;99.90;;;;;;5088891;28;20199;-71
2022/12/12 08:43:03;;;;;;;49.47;23.27;;;1.20;99.90;;;;;;5086613;28;20698;-70
2022/12/12 08:45:30;;;;;;;44.30;22.00;;;1.30;99.90;;;;;;5089175;28;20198;-69
2022/12/12 08:47:57;;;;;;;47.30;22.80;;;1.10;99.90;;;;;;5084044;28;20658;-69
2022/12/12 08:50:24;;;;;;;50.93;23.83;;;1.10;99.90;;;;;;5086518;28;20200;-69
2022/12/12 08:52:51;;;;;;;51.70;24.80;;;1.10;99.90;;;;;;5087631;28;20223;-69
2022/12/12 08:55:19;;;;;;;49.27;24.77;;;1.00;99.90;;;;;;5085616;28;20239;-69
2022/12/12 08:57:45;;;;;;;57.50;24.50;;;1.00;99.90;;;;;;5078860;28;20241;-70
2022/12/12 09:00:13;;;;;;;56.07;25.17;;;0.90;99.90;;;;;;5084927;28;20189;-71
2022/12/12 09:02:40;;;;;;;52.40;24.10;;;;;;;;;;5081846;28;20197;-71
2022/12/12 09:05:07;;;;;;;57.27;25.17;;;0.90;99.90;;;;;;5086775;28;20200;-70
2022/12/12 09:07:35;;;;;;;52.90;26.00;;;0.80;99.90;;;;;;5068853;28;20319;-71
2022/12/12 09:10:03;;;;;;;55.87;24.60;;;0.80;99.90;;;;;;5093731;28;20230;-71
2022/12/12 09:12:30;;;;;;;59.70;27.07;;;0.80;99.90;;;;;;5090329;28;20310;-69
2022/12/12 09:15:02;;;;;;;62.30;26.67;;;0.80;99.90;;;;;;5086661;28;20206;-69
2022/12/12 09:17:29;;;;;;;54.57;25.73;;;0.80;99.90;;;;;;5087548;28;20287;-70
2022/12/12 09:19:56;;;;;;;58.23;26.87;;;0.80;99.90;;;;;;5094710;28;20210;-70
2022/12/12 09:22:23;;;;;;;53.57;26.10;;;0.80;99.90;;;;;;5088217;28;20218;-69
2022/12/12 09:24:49;;;;;;;52.20;24.70;;;0.80;99.90;;;;;;5094019;28;20198;-71
2022/12/12 09:27:16;;;;;;;56.87;25.17;;;0.80;99.90;;;;;;5093449;28;20294;-70
2022/12/12 09:29:43;;;;;;;55.57;24.00;;;0.80;99.90;;;;;;5089129;28;20253;-68
2022/12/12 09:32:09;;;;;;;60.93;26.23;;;0.80;99.90;;;;;;5093093;28;20302;-68
2022/12/12 09:34:37;;;;;;;52.43;24.03;;;0.80;99.90;;;;;;5093821;28;20302;-69
2022/12/12 09:37:04;;;;;;;60.47;25.77;;;0.80;99.90;;;;;;5071446;28;20302;-69
2022/12/12 09:39:31;;;;;;;57.67;24.40;;;0.80;99.90;;;;;;5095161;28;20642;-69
2022/12/12 09:42:07;;;;;;;52.07;23.60;;;0.80;99.90;;;;;;5089751;28;20679;-71
2022/12/12 09:44:33;;;;;;;53.70;24.87;;;0.70;99.90;;;;;;5094461;28;20299;-69
2022/12/12 09:47:09;;;;;;;50.40;23.77;;;0.70;99.90;;;;;;5088338;28;20299;-70
2022/12/12 09:49:48;;;;;;;47.17;22.33;;;0.70;99.90;;;;;;5093776;28;20209;-70
2022/12/12 09:52:17;;;;;;;50.27;22.87;;;0.70;99.90;;;;;;5091353;28;20306;-68
2022/12/12 09:54:44;;;;;;;54.67;24.60;;;0.70;99.90;;;;;;5095259;28;20718;-70
2022/12/12 09:57:40;;;;;;;53.83;24.20;;;0.70;99.90;;;;;;5090273;28;20226;-69
2022/12/12 10:00:11;;;;;;;46.93;22.87;;;0.70;99.90;;;;;;5092973;28;20751;-69
2022/12/12 10:03:15;;;;;;;51.50;23.30;;;0.80;99.90;;;;;;5092744;28;20662;-68
2022/12/12 10:05:57;;;;;;;53.80;23.13;;;0.80;99.90;;;;;;5088258;28;20282;-69
2022/12/12 10:09:02;;;;;;;48.90;22.33;;;0.80;99.90;;;;;;5092302;28;20198;-69
2022/12/12 10:11:53;;;;;;;48.33;21.90;;;0.80;99.90;;;;;;5091499;28;20759;-70
2022/12/12 10:14:37;;;;;;;49.23;20.70;;;0.80;99.90;;;;;;5090122;28;20580;-71
2022/12/12 10:17:25;;;;;;;48.37;20.77;;;0.80;99.90;;;;;;5092066;28;20882;-69
2022/12/12 10:20:15;;;;;;;46.33;21.23;;;0.80;99.90;;;;;;5089056;28;20639;-71
2022/12/12 10:22:49;;;;;;;48.37;21.40;;;0.80;99.90;;;;;;5081676;28;20196;-72
2022/12/12 10:25:53;;;;;;;49.23;22.67;;;0.80;99.90;;;;;;5089458;28;20211;-70
2022/12/12 10:28:23;;;;;;;46.13;22.53;;;0.80;99.90;;;;;;5033264;28;20219;-71
2022/12/12 10:31:10;;;;;;;49.50;24.17;;;0.80;99.90;;;;;;5082705;28;20192;-70
2022/12/12 10:34:04;;;;;;;50.83;22.83;;;0.90;99.90;;;;;;5089807;28;20243;-70
2022/12/12 10:37:08;;;;;;;52.87;23.50;;;0.90;99.90;;;;;;5090763;28;20278;-69
2022/12/12 10:40:02;;;;;;;47.13;21.80;;;0.90;99.90;;;;;;5087965;28;20260;-70
2022/12/12 10:42:35;;;;;;;49.33;22.87;;;0.90;99.90;;;;;;5087009;28;20307;-69
2022/12/12 10:45:23;;;;;;;45.60;21.87;;;0.90;99.90;;;;;;5086561;28;20294;-71
2022/12/12 10:47:51;;;;;;;47.13;21.23;;;0.90;99.90;;;;;;5090329;28;20196;-68
2022/12/12 10:50:34;;;;;;;43.57;21.80;;;1.00;99.90;;;;;;5069421;28;20771;-70
2022/12/12 10:53:04;;;;;;;50.07;22.80;;;1.00;99.90;;;;;;5089904;28;20250;-70
2022/12/12 10:55:54;;;;;;;49.03;21.67;;;1.00;99.90;;;;;;5087829;28;20581;-71
2022/12/12 10:58:25;;;;;;;40.87;19.87;;;1.00;99.90;;;;;;5068129;28;20311;-68
2022/12/12 11:01:00;;;;;;;41.23;19.43;;;1.00;99.90;;;;;;5087332;28;20207;-70
2022/12/12 11:03:46;;;;;;;45.33;20.40;;;1.00;99.90;;;;;;5087765;28;20222;-68
2022/12/12 11:06:38;;;;;;;45.20;20.03;;;1.00;99.90;;;;;;5086416;28;20288;-71
2022/12/12 11:09:19;;;;;;;39.47;18.53;;;1.00;99.90;;;;;;5077734;28;20298;-69
2022/12/12 11:12:01;;;;;;;39.63;20.43;;;1.00;99.90;;;;;;5085535;28;20580;-70
2022/12/12 11:14:36;;;;;;;49.37;21.07;;;1.00;99.90;;;;;;5087158;28;20251;-69
2022/12/12 11:17:32;;;;;;;42.90;18.83;;;1.00;99.90;;;;;;5087660;28;20206;-68
2022/12/12 11:20:01;;;;;;;41.67;19.40;;;1.00;99.90;;;;;;5077041;28;20590;-69
2022/12/12 11:22:31;;;;;;;42.60;20.37;;;1.10;99.90;;;;;;5089307;28;20249;-69
2022/12/12 11:24:59;;;;;;;36.37;18.03;;;1.10;99.90;;;;;;5087286;28;20585;-70
2022/12/12 11:27:29;;;;;;;41.00;18.33;;;1.10;99.90;;;;;;5084989;28;20321;-70
2022/12/12 11:30:02;;;;;;;41.70;18.77;;;1.10;99.90;;;;;;5083994;28;20211;-68
2022/12/12 11:32:51;;;;;;;41.90;20.07;;;1.10;99.90;;;;;;5068344;28;20296;-69
2022/12/12 11:35:25;;;;;;;42.07;18.77;;;1.10;99.90;;;;;;5085931;28;20239;-69
2022/12/12 11:37:58;;;;;;;40.63;19.33;;;1.10;99.90;;;;;;5086060;28;20307;-71
2022/12/12 11:40:27;;;;;;;42.23;19.60;;;1.20;99.90;;;;;;5067592;28;20540;-70
2022/12/12 11:43:26;;;;;;;39.63;19.33;;;1.20;99.90;;;;;;5089314;28;20247;-70
2022/12/12 11:46:02;;;;;;;37.50;18.60;;;1.20;99.90;;;;;;5084152;28;20240;-70
2022/12/12 11:48:56;;;;;;;43.73;20.13;;;1.20;99.90;;;;;;5089264;28;20203;-69
2022/12/12 11:51:35;;;;;;;41.93;19.27;;;1.20;99.90;;;;;;5074495;28;20196;-69
2022/12/12 11:54:26;;;;;;;40.27;18.80;;;1.30;99.90;;;;;;5089570;28;20216;-68
2022/12/12 11:57:04;;;;;;;41.77;19.20;;;1.30;99.90;;;;;;5072872;28;20219;-71
2022/12/12 11:59:37;;;;;;;34.07;17.90;;;1.30;99.90;;;;;;5087301;28;20238;-69
2022/12/12 12:02:15;;;;;;;39.73;17.87;;;1.30;99.90;;;;;;5089295;28;20194;-70
2022/12/12 12:05:05;;;;;;;36.17;18.50;;;1.30;99.90;;;;;;5084820;28;20238;-71
2022/12/12 12:07:45;;;;;;;35.87;18.50;;;1.40;99.90;;;;;;5088346;28;20232;-68
2022/12/12 12:10:30;;;;;;;39.40;18.70;;;1.40;99.90;;;;;;5070279;28;20250;-68
2022/12/12 12:13:16;;;;;;;42.53;21.10;;;1.40;99.90;;;;;;5086381;28;20224;-69
2022/12/12 12:15:57;;;;;;;43.13;18.77;;;1.40;99.90;;;;;;5087639;28;20204;-70
2022/12/12 12:19:01;;;;;;;38.17;18.73;;;1.40;99.90;;;;;;5067755;28;20311;-70
2022/12/12 12:21:43;;;;;;;41.53;18.90;;;1.40;99.90;;;;;;5088904;28;20202;-70
2022/12/12 12:24:52;;;;;;;35.67;18.17;;;1.50;99.90;;;;;;5067405;28;20204;-70
2022/12/12 12:27:36;;;;;;;40.57;19.83;;;1.50;99.90;;;;;;5054990;28;20212;-71
2022/12/12 12:30:20;;;;;;;36.40;19.10;;;1.50;99.90;;;;;;5086244;28;20573;-69
2022/12/12 12:32:50;;;;;;;40.10;19.40;;;1.50;99.90;;;;;;5086234;28;20339;-70
2022/12/12 12:35:50;;;;;;;39.77;19.03;;;1.50;99.90;;;;;;5086882;28;20287;-69
2022/12/12 12:38:39;;;;;;;44.43;19.70;;;1.50;99.90;;;;;;5081166;28;20309;-68
2022/12/12 12:41:40;;;;;;;37.77;19.83;;;1.60;99.90;;;;;;5086220;28;20243;-69
2022/12/12 12:44:36;;;;;;;39.77;19.13;;;1.60;99.90;;;;;;5083629;28;20200;-69
2022/12/12 12:47:19;;;;;;;38.47;19.60;;;1.60;99.90;;;;;;5085871;28;20288;-69
2022/12/12 12:49:55;;;;;;;37.97;19.30;;;1.60;99.90;;;;;;5068449;28;20843;-70
2022/12/12 12:52:47;;;;;;;44.20;20.23;;;1.60;99.90;;;;;;5079025;28;20622;-69
2022/12/12 12:55:23;;;;;;;40.03;18.97;;;1.60;99.90;;;;;;5058391;28;20611;-70
2022/12/12 12:57:50;;;;;;;40.20;19.43;;;1.60;99.90;;;;;;5083510;28;20322;-69
2022/12/12 13:00:20;;;;;;;37.30;18.20;;;1.60;99.90;;;;;;5068113;28;20317;-70
2022/12/12 13:02:55;;;;;;;36.57;18.03;;;1.70;99.90;;;;;;5088413;28;20295;-71
2022/12/12 13:05:31;;;;;;;38.90;18.93;;;1.70;99.90;;;;;;5087353;28;20672;-69
2022/12/12 13:08:07;;;;;;;38.37;18.23;;;1.70;99.90;;;;;;5084894;28;20293;-69
2022/12/12 13:10:39;;;;;;;39.40;17.43;;;1.70;99.90;;;;;;5085438;28;20204;-69
2022/12/12 13:13:25;;;;;;;38.80;17.33;;;1.70;99.90;;;;;;5064500;28;20569;-68
2022/12/12 13:16:16;;;;;;;44.53;17.93;;;1.70;99.90;;;;;;5084337;28;20246;-69
2022/12/12 13:18:47;;;;;;;34.40;17.57;;;1.70;99.90;;;;;;5081933;28;20689;-70
2022/12/12 13:21:29;;;;;;;38.93;17.17;;;1.70;99.90;;;;;;5082706;28;20204;-68
2022/12/12 13:24:01;;;;;;;34.90;18.20;;;1.70;99.90;;;;;;5067451;28;20299;-68
2022/12/12 13:26:40;;;;;;;37.40;18.13;;;1.70;99.90;;;;;;5088323;28;20231;-68
2022/12/12 13:29:31;;;;;;;37.50;17.93;;;1.70;99.90;;;;;;5066949;28;20258;-69